createdAt,value
2018-02-18T00:00:42.082Z,12.4
2018-02-18T00:01:41.960Z,12.9
2018-02-18T00:02:41.641Z,12.7
2018-02-18T00:03:41.871Z,13.1
2018-02-18T00:04:41.466Z,12.9
2018-02-18T00:05:41.743Z,13.1
2018-02-18T00:06:41.331Z,13
2018-02-18T00:07:41.369Z,13
2018-02-18T00:08:41.227Z,13.2
2018-02-18T00:09:41.176Z,13.1
2018-02-18T00:10:41.037Z,12.5
2018-02-18T00:11:41.190Z,12.8
2018-02-18T00:12:40.949Z,12.4
2018-02-18T00:13:40.881Z,13.2
2018-02-18T00:14:40.895Z,12.7
2018-02-18T00:15:40.683Z,13.2
2018-02-18T00:16:40.930Z,12.6
2018-02-18T00:17:40.722Z,13.1
2018-02-18T00:18:40.453Z,12.7
2018-02-18T00:19:40.527Z,12.5
2018-02-18T00:20:40.355Z,12.6
2018-02-18T00:21:40.281Z,13.1
2018-02-18T00:22:40.230Z,12.9
2018-02-18T00:23:40.226Z,13.1
2018-02-18T00:24:40.074Z,12.6
2018-02-18T00:25:40.179Z,13.1
2018-02-18T00:26:39.990Z,13
2018-02-18T00:27:39.888Z,12.9
2018-02-18T00:28:39.859Z,12.7
2018-02-18T00:29:39.695Z,12.9
2018-02-18T00:30:39.954Z,12.9
2018-02-18T00:31:39.706Z,12.6
2018-02-18T00:32:39.865Z,13
2018-02-18T00:33:39.418Z,12.9
2018-02-18T00:34:39.446Z,13.1
2018-02-18T00:35:39.377Z,12.7
2018-02-18T00:36:39.296Z,13.1
2018-02-18T00:37:39.479Z,12.6
2018-02-18T00:38:39.398Z,12.9
2018-02-18T00:39:39.465Z,12.8
2018-02-18T00:40:38.978Z,13.2
2018-02-18T00:41:39.117Z,12.6
2018-02-18T00:42:38.839Z,13.2
2018-02-18T00:43:38.761Z,12.7
2018-02-18T00:44:38.951Z,12.8
2018-02-18T00:45:38.678Z,13
2018-02-18T00:46:38.552Z,12.8
2018-02-18T00:47:38.506Z,13
2018-02-18T00:48:38.424Z,13
2018-02-18T00:49:38.372Z,12.6
2018-02-18T00:50:38.301Z,12.5
2018-02-18T00:51:38.261Z,12.6
2018-02-18T00:52:38.195Z,12.6
2018-02-18T00:53:38.192Z,13
2018-02-18T00:54:37.989Z,13.1
2018-02-18T00:55:38.013Z,12.6
2018-02-18T00:56:37.921Z,13.1
2018-02-18T00:57:38.140Z,12.7
2018-02-18T00:58:37.735Z,12.9
2018-02-18T00:59:38.249Z,13.1
2018-02-18T01:00:37.592Z,13.1
2018-02-18T01:01:37.525Z,13.1
2018-02-18T01:02:37.760Z,12.6
2018-02-18T01:03:37.412Z,12.9
2018-02-18T01:04:37.363Z,13.2
2018-02-18T01:05:37.296Z,12.7
2018-02-18T01:06:37.182Z,12.9
2018-02-18T01:07:37.448Z,13.1
2018-02-18T01:08:37.147Z,13.1
2018-02-18T01:09:37.368Z,12.7
2018-02-18T01:10:37.195Z,13.1
2018-02-18T01:11:36.883Z,13.1
2018-02-18T01:12:36.816Z,12.4
2018-02-18T01:13:36.794Z,12.9
2018-02-18T01:14:36.684Z,13.1
2018-02-18T01:15:36.876Z,12.8
2018-02-18T01:16:36.779Z,12.9
2018-02-18T01:17:36.593Z,12.6
2018-02-18T01:18:36.395Z,12.7
2018-02-18T01:19:36.424Z,13.1
2018-02-18T01:20:36.261Z,13.1
2018-02-18T01:21:36.192Z,12.7
2018-02-18T01:22:36.181Z,12.6
2018-02-18T01:23:36.022Z,13
2018-02-18T01:24:35.937Z,13.2
2018-02-18T01:25:36.164Z,13.2
2018-02-18T01:26:35.780Z,13
2018-02-18T01:27:35.752Z,13.1
2018-02-18T01:28:35.716Z,12.7
2018-02-18T01:29:35.557Z,13.1
2018-02-18T01:30:35.930Z,12.9
2018-02-18T01:31:35.463Z,13.1
2018-02-18T01:32:35.445Z,12.8
2018-02-18T01:33:35.428Z,12.8
2018-02-18T01:34:35.502Z,12.9
2018-02-18T01:35:35.165Z,13
2018-02-18T01:36:35.117Z,13.1
2018-02-18T01:37:35.089Z,12.6
2018-02-18T01:38:34.942Z,12.6
2018-02-18T01:39:34.952Z,12.5
2018-02-18T01:40:34.799Z,12.7
2018-02-18T01:41:35.065Z,13.2
2018-02-18T01:42:34.807Z,12.9
2018-02-18T01:43:34.734Z,13.1
2018-02-18T01:44:34.607Z,12.6
2018-02-18T01:45:34.541Z,12.5
2018-02-18T01:46:34.590Z,12.9
2018-02-18T01:47:34.309Z,13.2
2018-02-18T01:48:34.280Z,13.1
2018-02-18T01:49:34.558Z,13.1
2018-02-18T01:50:34.156Z,12.9
2018-02-18T01:51:34.071Z,12.9
2018-02-18T01:52:34.237Z,13
2018-02-18T01:53:33.936Z,13.1
2018-02-18T01:54:33.982Z,13.1
2018-02-18T01:55:33.857Z,12.7
2018-02-18T01:56:33.685Z,12.9
2018-02-18T01:57:33.623Z,13.2
2018-02-18T01:58:33.804Z,13.1
2018-02-18T01:59:33.522Z,12.8
2018-02-18T02:00:33.572Z,13.1
2018-02-18T02:01:33.383Z,12.5
2018-02-18T02:02:33.561Z,13.2
2018-02-18T02:03:33.308Z,12.9
2018-02-18T02:04:33.343Z,12.9
2018-02-18T02:05:33.107Z,12.9
2018-02-18T02:06:33.179Z,12.6
2018-02-18T02:07:32.972Z,12.9
2018-02-18T02:08:32.951Z,12.7
2018-02-18T02:09:33.132Z,12.8
2018-02-18T02:10:32.760Z,13
2018-02-18T02:11:32.748Z,12.7
2018-02-18T02:12:32.722Z,12.7
2018-02-18T02:13:32.560Z,13
2018-02-18T02:14:32.498Z,13
2018-02-18T02:15:32.421Z,13.1
2018-02-18T02:16:32.460Z,12.5
2018-02-18T02:17:32.636Z,12.5
2018-02-18T02:18:32.616Z,13.1
2018-02-18T02:19:32.147Z,12.8
2018-02-18T02:20:32.127Z,12.9
2018-02-18T02:21:31.974Z,13
2018-02-18T02:22:32.064Z,12.6
2018-02-18T02:23:31.962Z,12.5
2018-02-18T02:24:31.802Z,13.1
2018-02-18T02:25:31.745Z,12.8
2018-02-18T02:26:31.663Z,12.9
2018-02-18T02:27:31.549Z,12.9
2018-02-18T02:28:31.573Z,13.1
2018-02-18T02:29:31.413Z,13.1
2018-02-18T02:30:31.722Z,12.6
2018-02-18T02:31:31.319Z,12.8
2018-02-18T02:32:31.314Z,12.9
2018-02-18T02:33:31.462Z,13
2018-02-18T02:34:31.113Z,12.6
2018-02-18T02:35:31.200Z,12.6
2018-02-18T02:36:31.090Z,12.5
2018-02-18T02:37:31.012Z,12.9
2018-02-18T02:38:30.939Z,12.6
2018-02-18T02:39:30.875Z,12.7
2018-02-18T02:40:31.042Z,13.1
2018-02-18T02:41:30.920Z,13
2018-02-18T02:42:30.563Z,12.7
2018-02-18T02:43:30.491Z,13.1
2018-02-18T02:44:30.436Z,12.6
2018-02-18T02:45:30.310Z,12.7
2018-02-18T02:46:30.429Z,13.1
2018-02-18T02:47:30.216Z,12.5
2018-02-18T02:48:30.192Z,12.8
2018-02-18T02:49:30.419Z,12.6
2018-02-18T02:50:29.964Z,13.1
2018-02-18T02:51:30.102Z,12.6
2018-02-18T02:52:30.184Z,12.6
2018-02-18T02:53:30.105Z,12.8
2018-02-18T02:54:29.731Z,12.4
2018-02-18T02:55:30.002Z,12.4
2018-02-18T02:56:29.639Z,12.7
2018-02-18T02:57:29.575Z,13.2
2018-02-18T02:58:29.791Z,13.1
2018-02-18T02:59:29.386Z,13.1
2018-02-18T03:00:29.436Z,12.5
2018-02-18T03:01:29.526Z,13
2018-02-18T03:02:29.157Z,12.7
2018-02-18T03:03:29.110Z,13
2018-02-18T03:04:29.153Z,13
2018-02-18T03:05:28.974Z,13
2018-02-18T03:06:29.285Z,13.1
2018-02-18T03:07:28.787Z,13
2018-02-18T03:08:28.764Z,12.9
2018-02-18T03:09:28.698Z,13
2018-02-18T03:10:28.705Z,12.6
2018-02-18T03:11:28.556Z,13
2018-02-18T03:12:28.850Z,12.8
2018-02-18T03:13:28.418Z,13.1
2018-02-18T03:14:28.349Z,13
2018-02-18T03:15:28.236Z,12.9
2018-02-18T03:16:28.263Z,12.5
2018-02-18T03:17:28.146Z,13.2
2018-02-18T03:18:28.177Z,13.1
2018-02-18T03:19:28.007Z,12.7
2018-02-18T03:20:28.267Z,12.9
2018-02-18T03:21:27.913Z,12.6
2018-02-18T03:22:27.851Z,13
2018-02-18T03:23:27.967Z,13.1
2018-02-18T03:24:27.655Z,13.2
2018-02-18T03:25:27.590Z,12.4
2018-02-18T03:26:27.810Z,13.2
2018-02-18T03:27:27.787Z,12.6
2018-02-18T03:28:27.628Z,12.9
2018-02-18T03:29:27.609Z,12.6
2018-02-18T03:30:27.545Z,12.9
2018-02-18T03:31:27.234Z,12.8
2018-02-18T03:32:27.161Z,12.9
2018-02-18T03:33:27.202Z,13.2
2018-02-18T03:34:26.947Z,12.7
2018-02-18T03:35:26.899Z,12.7
2018-02-18T03:36:26.941Z,12.9
2018-02-18T03:37:26.922Z,13.1
2018-02-18T03:38:27.033Z,12.9
2018-02-18T03:39:26.589Z,13
2018-02-18T03:40:26.723Z,12.6
2018-02-18T03:41:26.444Z,12.6
2018-02-18T03:42:26.417Z,13
2018-02-18T03:43:26.498Z,12.4
2018-02-18T03:44:26.528Z,13.2
2018-02-18T03:45:26.313Z,12.9
2018-02-18T03:46:26.430Z,13.2
2018-02-18T03:47:26.173Z,12.6
2018-02-18T03:48:26.005Z,13
2018-02-18T03:49:25.983Z,13.1
2018-02-18T03:50:25.820Z,12.8
2018-02-18T03:51:25.823Z,13.2
2018-02-18T03:52:25.734Z,13
2018-02-18T03:53:25.759Z,12.5
2018-02-18T03:54:25.708Z,12.8
2018-02-18T03:55:25.517Z,12.7
2018-02-18T03:56:25.417Z,13.1
2018-02-18T03:57:25.838Z,13
2018-02-18T03:58:25.428Z,12.7
2018-02-18T03:59:25.208Z,12.6
2018-02-18T04:00:25.335Z,13.1
2018-02-18T04:01:25.062Z,12.5
2018-02-18T04:02:25.091Z,13.1
2018-02-18T04:03:24.964Z,12.8
2018-02-18T04:04:25.012Z,13
2018-02-18T04:05:24.825Z,13
2018-02-18T04:06:24.774Z,13
2018-02-18T04:07:25.268Z,13.2
2018-02-18T04:08:24.667Z,13.1
2018-02-18T04:09:24.595Z,12.9
2018-02-18T04:10:24.691Z,13
2018-02-18T04:11:24.631Z,13.1
2018-02-18T04:12:24.393Z,13
2018-02-18T04:13:24.229Z,13
2018-02-18T04:14:24.210Z,13
2018-02-18T04:15:24.443Z,13.1
2018-02-18T04:16:24.206Z,12.7
2018-02-18T04:17:24.106Z,13
2018-02-18T04:18:23.936Z,12.7
2018-02-18T04:19:23.913Z,13
2018-02-18T04:20:23.969Z,13
2018-02-18T04:21:23.829Z,13.2
2018-02-18T04:22:23.924Z,12.8
2018-02-18T04:23:23.582Z,12.7
2018-02-18T04:24:23.562Z,12.9
2018-02-18T04:25:23.495Z,13.1
2018-02-18T04:26:23.376Z,12.6
2018-02-18T04:27:23.752Z,12.7
2018-02-18T04:28:23.202Z,13
2018-02-18T04:29:23.221Z,12.7
2018-02-18T04:30:23.186Z,12.8
2018-02-18T04:31:23.066Z,12.7
2018-02-18T04:32:22.957Z,12.8
2018-02-18T04:33:22.946Z,12.6
2018-02-18T04:34:22.931Z,13
2018-02-18T04:35:22.712Z,13.1
2018-02-18T04:36:22.737Z,12.8
2018-02-18T04:37:22.581Z,13.1
2018-02-18T04:38:22.587Z,12.5
2018-02-18T04:39:22.584Z,13.1
2018-02-18T04:40:22.462Z,12.9
2018-02-18T04:41:22.504Z,13.1
2018-02-18T04:42:22.391Z,13.2
2018-02-18T04:43:22.498Z,12.9
2018-02-18T04:44:22.138Z,13
2018-02-18T04:45:22.067Z,12.6
2018-02-18T04:46:22.076Z,12.8
2018-02-18T04:47:22.281Z,12.6
2018-02-18T04:48:21.819Z,12.7
2018-02-18T04:49:21.789Z,13.1
2018-02-18T04:50:21.734Z,13
2018-02-18T04:51:21.647Z,12.9
2018-02-18T04:52:21.584Z,13
2018-02-18T04:53:21.563Z,12.7
2018-02-18T04:54:21.556Z,12.6
2018-02-18T04:55:21.378Z,13
2018-02-18T04:56:21.353Z,12.8
2018-02-18T04:57:21.483Z,13
2018-02-18T04:58:21.335Z,12.7
2018-02-18T04:59:21.145Z,12.8
2018-02-18T05:00:21.140Z,13.1
2018-02-18T05:01:20.962Z,13.2
2018-02-18T05:02:20.978Z,12.8
2018-02-18T05:03:20.950Z,13
2018-02-18T05:04:20.798Z,12.4
2018-02-18T05:05:20.794Z,12.7
2018-02-18T05:06:21.034Z,13.1
2018-02-18T05:07:20.500Z,12.8
2018-02-18T05:08:20.869Z,13.2
2018-02-18T05:09:20.413Z,12.8
2018-02-18T05:10:20.476Z,12.6
2018-02-18T05:11:20.336Z,12.9
2018-02-18T05:12:20.245Z,13
2018-02-18T05:13:20.410Z,13
2018-02-18T05:14:20.329Z,12.8
2018-02-18T05:15:19.986Z,13.1
2018-02-18T05:16:19.929Z,12.6
2018-02-18T05:17:19.857Z,13.2
2018-02-18T05:18:19.813Z,12.5
2018-02-18T05:19:19.737Z,12.9
2018-02-18T05:20:19.605Z,12.5
2018-02-18T05:21:19.866Z,13.1
2018-02-18T05:22:19.615Z,13
2018-02-18T05:23:19.489Z,13.1
2018-02-18T05:24:19.327Z,12.6
2018-02-18T05:25:19.413Z,13
2018-02-18T05:26:19.228Z,12.9
2018-02-18T05:27:19.320Z,13
2018-02-18T05:28:19.259Z,13.2
2018-02-18T05:29:18.981Z,13
2018-02-18T05:30:19.004Z,12.7
2018-02-18T05:31:18.935Z,13
2018-02-18T05:32:18.817Z,13
2018-02-18T05:33:18.765Z,12.5
2018-02-18T05:34:18.676Z,13
2018-02-18T05:35:18.643Z,12.7
2018-02-18T05:36:18.501Z,12.8
2018-02-18T05:37:18.580Z,13.2
2018-02-18T05:38:18.404Z,13.1
2018-02-18T05:39:18.382Z,13
2018-02-18T05:40:18.360Z,13.1
2018-02-18T05:41:18.246Z,12.9
2018-02-18T05:42:18.102Z,12.6
2018-02-18T05:43:18.396Z,12.9
2018-02-18T05:44:18.021Z,13.1
2018-02-18T05:45:17.917Z,12.8
2018-02-18T05:46:17.815Z,13.2
2018-02-18T05:47:18.124Z,13.1
2018-02-18T05:48:17.675Z,13.1
2018-02-18T05:49:17.697Z,12.6
2018-02-18T05:50:17.637Z,12.8
2018-02-18T05:51:17.764Z,13.2
2018-02-18T05:52:17.494Z,12.8
2018-02-18T05:53:17.773Z,13
2018-02-18T05:54:17.412Z,12.7
2018-02-18T05:55:17.544Z,13.1
2018-02-18T05:56:17.158Z,12.7
2018-02-18T05:57:17.137Z,12.6
2018-02-18T05:58:17.059Z,13.2
2018-02-18T05:59:16.953Z,13
2018-02-18T06:00:16.950Z,12.6
2018-02-18T06:01:16.774Z,13.5
2018-02-18T06:02:16.802Z,12.8
2018-02-18T06:03:16.633Z,13.1
2018-02-18T06:04:16.606Z,13.7
2018-02-18T06:05:16.543Z,13.3
2018-02-18T06:06:16.776Z,13.5
2018-02-18T06:07:16.493Z,14.2
2018-02-18T06:08:16.440Z,13.4
2018-02-18T06:09:16.482Z,13.9
2018-02-18T06:10:16.198Z,13.1
2018-02-18T06:11:16.176Z,13.4
2018-02-18T06:12:16.304Z,13.5
2018-02-18T06:13:16.038Z,13.3
2018-02-18T06:14:15.956Z,13.6
2018-02-18T06:15:15.956Z,13.7
2018-02-18T06:16:16.077Z,13.1
2018-02-18T06:17:15.708Z,13.4
2018-02-18T06:18:15.602Z,13.3
2018-02-18T06:19:15.744Z,13.4
2018-02-18T06:20:15.518Z,13.6
2018-02-18T06:21:15.594Z,13.5
2018-02-18T06:22:15.363Z,13.8
2018-02-18T06:23:15.342Z,13.9
2018-02-18T06:24:15.582Z,14.1
2018-02-18T06:25:15.175Z,14
2018-02-18T06:26:15.246Z,14.2
2018-02-18T06:27:15.032Z,14.5
2018-02-18T06:28:15.058Z,14.4
2018-02-18T06:29:15.183Z,14.4
2018-02-18T06:30:14.940Z,13.8
2018-02-18T06:31:14.772Z,13.7
2018-02-18T06:32:14.787Z,13.5
2018-02-18T06:33:14.612Z,13.7
2018-02-18T06:34:14.867Z,13.9
2018-02-18T06:35:14.637Z,13.6
2018-02-18T06:36:14.400Z,13.3
2018-02-18T06:37:14.349Z,13.5
2018-02-18T06:38:14.289Z,13.7
2018-02-18T06:39:14.329Z,13.1
2018-02-18T06:40:14.181Z,13.5
2018-02-18T06:41:14.100Z,13.1
2018-02-18T06:42:13.946Z,13.9
2018-02-18T06:43:14.021Z,13.2
2018-02-18T06:44:13.869Z,13.9
2018-02-18T06:45:13.776Z,13.9
2018-02-18T06:46:13.734Z,13.9
2018-02-18T06:47:13.623Z,14
2018-02-18T06:48:13.679Z,14.1
2018-02-18T06:49:13.613Z,14.2
2018-02-18T06:50:13.483Z,13.9
2018-02-18T06:51:13.408Z,13.3
2018-02-18T06:52:13.929Z,13.9
2018-02-18T06:53:13.197Z,13.2
2018-02-18T06:54:13.265Z,13.2
2018-02-18T06:55:13.056Z,13.9
2018-02-18T06:56:13.183Z,13.8
2018-02-18T06:57:12.949Z,13.9
2018-02-18T06:58:12.998Z,14.6
2018-02-18T06:59:12.917Z,14.2
2018-02-18T07:00:13.025Z,14.2
2018-02-18T07:01:12.716Z,14.2
2018-02-18T07:02:12.799Z,14.1
2018-02-18T07:03:12.639Z,14.2
2018-02-18T07:04:12.710Z,14.2
2018-02-18T07:05:12.446Z,14.6
2018-02-18T07:06:12.282Z,14.3
2018-02-18T07:07:12.354Z,13.8
2018-02-18T07:08:12.506Z,14
2018-02-18T07:09:12.117Z,14.4
2018-02-18T07:10:12.053Z,14.4
2018-02-18T07:11:12.024Z,14.5
2018-02-18T07:12:12.291Z,14.1
2018-02-18T07:13:11.892Z,14.6
2018-02-18T07:14:11.733Z,14.2
2018-02-18T07:15:11.701Z,14.3
2018-02-18T07:16:11.698Z,14.4
2018-02-18T07:17:11.619Z,14.1
2018-02-18T07:18:11.474Z,14.3
2018-02-18T07:19:11.429Z,14.7
2018-02-18T07:20:11.465Z,14
2018-02-18T07:21:11.301Z,14.3
2018-02-18T07:22:11.385Z,14
2018-02-18T07:23:11.108Z,14
2018-02-18T07:24:11.134Z,14.5
2018-02-18T07:25:11.102Z,14.6
2018-02-18T07:26:11.157Z,13.9
2018-02-18T07:27:10.894Z,14.4
2018-02-18T07:28:10.812Z,14.7
2018-02-18T07:29:10.790Z,14.3
2018-02-18T07:30:10.626Z,14.3
2018-02-18T07:31:10.889Z,14.1
2018-02-18T07:32:10.530Z,14.4
2018-02-18T07:33:10.639Z,13.9
2018-02-18T07:34:10.473Z,14.7
2018-02-18T07:35:10.325Z,14.5
2018-02-18T07:36:10.250Z,14.7
2018-02-18T07:37:10.496Z,14.4
2018-02-18T07:38:10.120Z,14.6
2018-02-18T07:39:10.057Z,14
2018-02-18T07:40:10.248Z,14.2
2018-02-18T07:41:10.187Z,14.6
2018-02-18T07:42:09.833Z,14.4
2018-02-18T07:43:10.063Z,14.1
2018-02-18T07:44:09.992Z,14.2
2018-02-18T07:45:09.886Z,14.2
2018-02-18T07:46:09.613Z,14
2018-02-18T07:47:09.502Z,14.6
2018-02-18T07:48:09.472Z,14.5
2018-02-18T07:49:09.469Z,14.3
2018-02-18T07:50:09.264Z,14
2018-02-18T07:51:09.524Z,14.7
2018-02-18T07:52:09.148Z,14.5
2018-02-18T07:53:09.080Z,14.3
2018-02-18T07:54:09.055Z,14.2
2018-02-18T07:55:09.017Z,14.5
2018-02-18T07:56:08.833Z,14.3
2018-02-18T07:57:09.260Z,14.5
2018-02-18T07:58:09.185Z,14.4
2018-02-18T07:59:08.681Z,14.6
2018-02-18T08:00:08.648Z,13.8
2018-02-18T08:01:08.529Z,14.1
2018-02-18T08:02:08.584Z,14.3
2018-02-18T08:03:08.695Z,14.1
2018-02-18T08:04:08.324Z,14
2018-02-18T08:05:08.209Z,14.5
2018-02-18T08:06:08.229Z,14.3
2018-02-18T08:07:08.098Z,14
2018-02-18T08:08:08.159Z,14.6
2018-02-18T08:09:07.978Z,14.4
2018-02-18T08:10:08.194Z,14.1
2018-02-18T08:11:08.238Z,14.3
2018-02-18T08:12:07.823Z,14.6
2018-02-18T08:13:07.754Z,14.4
2018-02-18T08:14:07.798Z,14.3
2018-02-18T08:15:07.761Z,14.7
2018-02-18T08:16:07.445Z,14.4
2018-02-18T08:17:07.470Z,14.5
2018-02-18T08:18:07.403Z,14.1
2018-02-18T08:19:07.281Z,13.9
2018-02-18T08:20:07.272Z,14
2018-02-18T08:21:07.142Z,14.5
2018-02-18T08:22:07.215Z,14.5
2018-02-18T08:23:06.994Z,14.5
2018-02-18T08:24:06.987Z,14.3
2018-02-18T08:25:06.828Z,14.6
2018-02-18T08:26:06.802Z,14.2
2018-02-18T08:27:06.735Z,14.7
2018-02-18T08:28:06.828Z,14.1
2018-02-18T08:29:06.640Z,14.4
2018-02-18T08:30:06.526Z,14
2018-02-18T08:31:06.569Z,14.5
2018-02-18T08:32:06.391Z,14.3
2018-02-18T08:33:06.540Z,14.6
2018-02-18T08:34:06.300Z,14.1
2018-02-18T08:35:06.240Z,14
2018-02-18T08:36:06.285Z,14.4
2018-02-18T08:37:06.061Z,14.2
2018-02-18T08:38:05.979Z,14.4
2018-02-18T08:39:05.970Z,14.4
2018-02-18T08:40:05.795Z,14.4
2018-02-18T08:41:05.822Z,14.7
2018-02-18T08:42:05.746Z,13.9
2018-02-18T08:43:05.690Z,14.1
2018-02-18T08:44:05.616Z,14.6
2018-02-18T08:45:05.546Z,14.2
2018-02-18T08:46:05.522Z,14.1
2018-02-18T08:47:05.595Z,14.2
2018-02-18T08:48:05.577Z,14
2018-02-18T08:49:05.386Z,14.3
2018-02-18T08:50:05.109Z,14.3
2018-02-18T08:51:05.090Z,14.6
2018-02-18T08:52:05.017Z,14.2
2018-02-18T08:53:04.947Z,14.6
2018-02-18T08:54:04.894Z,14.7
2018-02-18T08:55:04.788Z,14.1
2018-02-18T08:56:04.783Z,14.4
2018-02-18T08:57:04.784Z,14.5
2018-02-18T08:58:04.651Z,14.2
2018-02-18T08:59:04.577Z,14.3
2018-02-18T09:00:04.685Z,14
2018-02-18T09:01:04.439Z,14.4
2018-02-18T09:02:04.321Z,14.5
2018-02-18T09:03:04.258Z,14
2018-02-18T09:04:04.204Z,13.8
2018-02-18T09:05:04.409Z,14.2
2018-02-18T09:06:04.233Z,14.7
2018-02-18T09:07:04.000Z,14.3
2018-02-18T09:08:03.959Z,14
2018-02-18T09:09:03.863Z,14
2018-02-18T09:10:03.913Z,14.2
2018-02-18T09:11:03.775Z,14.1
2018-02-18T09:12:03.653Z,14.1
2018-02-18T09:13:03.671Z,14.2
2018-02-18T09:14:03.508Z,14.4
2018-02-18T09:15:03.533Z,14.2
2018-02-18T09:16:03.643Z,14.4
2018-02-18T09:17:03.344Z,14.1
2018-02-18T09:18:03.219Z,14.6
2018-02-18T09:19:03.305Z,13.8
2018-02-18T09:20:03.090Z,14.7
2018-02-18T09:21:03.020Z,14
2018-02-18T09:22:02.953Z,14.2
2018-02-18T09:23:02.837Z,14.4
2018-02-18T09:24:02.980Z,14.5
2018-02-18T09:25:03.043Z,14.6
2018-02-18T09:26:02.654Z,14.1
2018-02-18T09:27:02.632Z,14.6
2018-02-18T09:28:02.886Z,14.4
2018-02-18T09:29:02.519Z,14.1
2018-02-18T09:30:02.509Z,14.3
2018-02-18T09:31:02.622Z,14.4
2018-02-18T09:32:02.562Z,14.7
2018-02-18T09:33:02.538Z,14.2
2018-02-18T09:34:02.431Z,14.3
2018-02-18T09:35:02.092Z,14.2
2018-02-18T09:36:01.951Z,14.4
2018-02-18T09:37:01.926Z,14.4
2018-02-18T09:38:02.313Z,14.3
2018-02-18T09:39:01.954Z,14.7
2018-02-18T09:40:01.771Z,14.4
2018-02-18T09:41:01.935Z,14.2
2018-02-18T09:42:01.803Z,14.4
2018-02-18T09:43:01.624Z,14.6
2018-02-18T09:44:01.779Z,14.6
2018-02-18T09:45:01.326Z,14.6
2018-02-18T09:46:01.350Z,14.4
2018-02-18T09:47:01.338Z,14.4
2018-02-18T09:48:01.123Z,14.7
2018-02-18T09:49:01.550Z,14
2018-02-18T09:50:01.067Z,14.1
2018-02-18T09:51:01.212Z,14.4
2018-02-18T09:52:00.892Z,14.2
2018-02-18T09:53:00.962Z,14
2018-02-18T09:54:01.103Z,14.7
2018-02-18T09:55:00.792Z,14.1
2018-02-18T09:56:01.202Z,14.6
2018-02-18T09:57:00.545Z,14.6
2018-02-18T09:58:00.745Z,14.2
2018-02-18T09:59:00.475Z,14.3
2018-02-18T10:00:00.675Z,14
2018-02-18T10:01:00.408Z,14.6
2018-02-18T10:02:00.208Z,14
2018-02-18T10:03:00.240Z,14.2
2018-02-18T10:04:00.056Z,14
2018-02-18T10:04:59.994Z,14.2
2018-02-18T10:05:59.939Z,14
2018-02-18T10:06:59.948Z,14.5
2018-02-18T10:07:59.792Z,14.3
2018-02-18T10:08:59.891Z,14.1
2018-02-18T10:09:59.886Z,14.4
2018-02-18T10:10:59.628Z,14.7
2018-02-18T10:11:59.468Z,14.2
2018-02-18T10:12:59.438Z,14.4
2018-02-18T10:13:59.373Z,14.4
2018-02-18T10:14:59.432Z,14.7
2018-02-18T10:15:59.295Z,14.4
2018-02-18T10:16:59.175Z,14.1
2018-02-18T10:17:59.145Z,14.1
2018-02-18T10:18:58.985Z,14.2
2018-02-18T10:19:59.005Z,14
2018-02-18T10:20:59.188Z,14.4
2018-02-18T10:21:59.179Z,14.4
2018-02-18T10:22:58.743Z,13.8
2018-02-18T10:23:59.339Z,14.1
2018-02-18T10:24:58.729Z,14.2
2018-02-18T10:25:58.548Z,14.2
2018-02-18T10:26:58.585Z,14
2018-02-18T10:27:58.372Z,14
2018-02-18T10:28:58.597Z,14.2
2018-02-18T10:29:58.422Z,14.7
2018-02-18T10:30:58.536Z,14.4
2018-02-18T10:31:58.295Z,14.4
2018-02-18T10:32:58.522Z,14.3
2018-02-18T10:33:58.050Z,14.6
2018-02-18T10:34:58.096Z,14
2018-02-18T10:35:57.863Z,14.2
2018-02-18T10:36:57.894Z,14.4
2018-02-18T10:37:57.764Z,14.3
2018-02-18T10:38:57.639Z,14.1
2018-02-18T10:39:57.637Z,14.6
2018-02-18T10:40:57.568Z,14.1
2018-02-18T10:41:57.451Z,14.7
2018-02-18T10:42:57.426Z,14.1
2018-02-18T10:43:57.316Z,14.1
2018-02-18T10:44:57.238Z,14.4
2018-02-18T10:45:57.465Z,14
2018-02-18T10:46:57.154Z,14.6
2018-02-18T10:47:57.132Z,14.4
2018-02-18T10:48:56.924Z,14.6
2018-02-18T10:49:57.015Z,14.1
2018-02-18T10:50:56.940Z,14.4
2018-02-18T10:51:56.813Z,14.7
2018-02-18T10:52:56.647Z,14
2018-02-18T10:53:56.637Z,14.2
2018-02-18T10:54:56.648Z,14.2
2018-02-18T10:55:56.601Z,14
2018-02-18T10:56:56.416Z,14.6
2018-02-18T10:57:56.508Z,14.6
2018-02-18T10:58:56.242Z,13.9
2018-02-18T10:59:56.283Z,14.6
2018-02-18T11:00:56.100Z,13.9
2018-02-18T11:01:56.111Z,14.2
2018-02-18T11:02:56.168Z,14.4
2018-02-18T11:03:56.094Z,14.4
2018-02-18T11:04:56.292Z,14
2018-02-18T11:05:55.804Z,14.3
2018-02-18T11:06:55.735Z,14.1
2018-02-18T11:07:56.326Z,13.8
2018-02-18T11:08:55.885Z,14.3
2018-02-18T11:09:55.527Z,14
2018-02-18T11:10:55.443Z,13.8
2018-02-18T11:11:55.733Z,14.2
2018-02-18T11:12:55.498Z,14.7
2018-02-18T11:13:55.251Z,14
2018-02-18T11:14:55.189Z,14.4
2018-02-18T11:15:55.165Z,14.2
2018-02-18T11:16:55.295Z,14.4
2018-02-18T11:17:55.023Z,14.2
2018-02-18T11:18:54.913Z,14.7
2018-02-18T11:19:54.854Z,14.7
2018-02-18T11:20:54.837Z,14.6
2018-02-18T11:21:54.975Z,14.5
2018-02-18T11:22:54.816Z,14
2018-02-18T11:23:54.976Z,14.4
2018-02-18T11:24:54.610Z,14
2018-02-18T11:25:54.449Z,14.3
2018-02-18T11:26:54.513Z,14
2018-02-18T11:27:54.835Z,14.7
2018-02-18T11:28:54.285Z,14.1
2018-02-18T11:29:54.241Z,14.4
2018-02-18T11:30:54.201Z,14.7
2018-02-18T11:31:54.083Z,14.3
2018-02-18T11:32:54.014Z,14.5
2018-02-18T11:33:54.009Z,14.5
2018-02-18T11:34:54.123Z,14.3
2018-02-18T11:35:53.771Z,14.7
2018-02-18T11:36:53.710Z,14.2
2018-02-18T11:37:53.968Z,14.7
2018-02-18T11:38:53.561Z,14
2018-02-18T11:39:53.480Z,14.6
2018-02-18T11:40:53.534Z,14
2018-02-18T11:41:53.360Z,14.4
2018-02-18T11:42:53.590Z,14.2
2018-02-18T11:43:53.560Z,14.1
2018-02-18T11:44:53.444Z,13.8
2018-02-18T11:45:53.383Z,14.3
2018-02-18T11:46:53.171Z,14.7
2018-02-18T11:47:52.990Z,14.1
2018-02-18T11:48:52.977Z,14.4
2018-02-18T11:49:52.824Z,14.6
2018-02-18T11:50:52.736Z,13.8
2018-02-18T11:51:52.771Z,14.1
2018-02-18T11:52:52.559Z,14
2018-02-18T11:53:52.644Z,14.6
2018-02-18T11:54:52.514Z,14.5
2018-02-18T11:55:52.406Z,14.4
2018-02-18T11:56:52.433Z,14.5
2018-02-18T11:57:52.381Z,14.6
2018-02-18T11:58:52.641Z,14.4
2018-02-18T11:59:52.463Z,14.1
2018-02-18T12:00:52.457Z,13.8
2018-02-18T12:01:51.987Z,14.4
2018-02-18T12:02:51.878Z,14
2018-02-18T12:03:52.068Z,14.6
2018-02-18T12:04:51.741Z,14.1
2018-02-18T12:05:52.039Z,14
2018-02-18T12:06:51.661Z,14.6
2018-02-18T12:07:51.689Z,14.5
2018-02-18T12:08:51.522Z,14.4
2018-02-18T12:09:51.457Z,14.4
2018-02-18T12:10:51.428Z,14.5
2018-02-18T12:11:51.317Z,14.5
2018-02-18T12:12:51.288Z,14.2
2018-02-18T12:13:51.276Z,14.4
2018-02-18T12:14:51.073Z,14.4
2018-02-18T12:15:51.091Z,14.6
2018-02-18T12:16:50.970Z,14.2
2018-02-18T12:17:51.194Z,14.4
2018-02-18T12:18:51.048Z,13.9
2018-02-18T12:19:51.213Z,14
2018-02-18T12:20:51.035Z,14.2
2018-02-18T12:21:50.673Z,14.4
2018-02-18T12:22:50.752Z,14.6
2018-02-18T12:23:50.780Z,14.6
2018-02-18T12:24:50.423Z,14.7
2018-02-18T12:25:50.689Z,14.3
2018-02-18T12:26:50.285Z,14.3
2018-02-18T12:27:50.267Z,14.6
2018-02-18T12:28:50.106Z,14.5
2018-02-18T12:29:50.243Z,14.7
2018-02-18T12:30:50.343Z,14
2018-02-18T12:31:50.179Z,14.1
2018-02-18T12:32:50.033Z,14.4
2018-02-18T12:33:49.762Z,14.4
2018-02-18T12:34:49.782Z,14.7
2018-02-18T12:35:49.667Z,14.2
2018-02-18T12:36:49.557Z,14.4
2018-02-18T12:37:49.616Z,14.2
2018-02-18T12:38:49.754Z,14
2018-02-18T12:39:49.614Z,14.4
2018-02-18T12:40:49.326Z,14
2018-02-18T12:41:49.212Z,14.1
2018-02-18T12:42:49.231Z,13.8
2018-02-18T12:43:49.166Z,14.4
2018-02-18T12:44:49.059Z,13.9
2018-02-18T12:45:48.973Z,14.2
2018-02-18T12:46:48.910Z,14.3
2018-02-18T12:47:49.119Z,14.5
2018-02-18T12:48:48.784Z,14.4
2018-02-18T12:49:48.701Z,14.6
2018-02-18T12:50:48.643Z,14.6
2018-02-18T12:51:48.677Z,14
2018-02-18T12:52:48.968Z,14.6
2018-02-18T12:53:48.419Z,14.2
2018-02-18T12:54:48.445Z,14.1
2018-02-18T12:55:48.293Z,14.2
2018-02-18T12:56:48.226Z,14.3
2018-02-18T12:57:48.211Z,14
2018-02-18T12:58:48.335Z,14
2018-02-18T12:59:48.015Z,14.4
2018-02-18T13:00:47.956Z,13.7
2018-02-18T13:01:47.885Z,14.1
2018-02-18T13:02:47.844Z,14.3
2018-02-18T13:03:47.703Z,14.1
2018-02-18T13:04:48.021Z,14.3
2018-02-18T13:05:47.704Z,14.6
2018-02-18T13:06:47.536Z,14.4
2018-02-18T13:07:47.484Z,14.7
2018-02-18T13:08:47.398Z,14.1
2018-02-18T13:09:47.361Z,14.5
2018-02-18T13:10:47.305Z,14.6
2018-02-18T13:11:47.199Z,14.2
2018-02-18T13:12:47.238Z,14.6
2018-02-18T13:13:47.223Z,14.1
2018-02-18T13:14:46.945Z,14
2018-02-18T13:15:46.968Z,14.6
2018-02-18T13:16:46.812Z,14.2
2018-02-18T13:17:47.094Z,14
2018-02-18T13:18:46.822Z,14.3
2018-02-18T13:19:46.857Z,14.3
2018-02-18T13:20:46.532Z,14.2
2018-02-18T13:21:46.559Z,14.4
2018-02-18T13:22:46.593Z,14.4
2018-02-18T13:23:46.584Z,14.4
2018-02-18T13:24:46.446Z,14.4
2018-02-18T13:25:46.259Z,14